Roza A — TCRB7 — position and weather

sailwx.info

Track history (hours):
 
Tides and Currents Weather Stations Pressure Air Temp Water Temp Dewpoint Dewpoint Depression Visibility Wind Speed Wind Dir Waves Ship Positions

Roza A

Last reported at 2018-Feb-25 00:02 UTC. Time now 2018-Feb-25 10:08 UTC.
Position N 40°25' E 029°05'.

Length 168 m; draft 6.6 m.

Type: Ship (hazmat cat A). MMSI: 271001057.

Date/timePositionNaut miles runAvg speedWind from/ knotsBaromVisibWave heightAir tempDewpointWater temp
2018-Feb-25 00:02N 40°25' E 029°05'0 0.4
2018-Feb-24 23:59N 40°25' E 029°05'1 2.8
2018-Feb-24 23:30N 40°25' E 029°03'0 0.9
2018-Feb-24 23:00N 40°26' E 029°03'1 1.6
2018-Feb-24 22:30N 40°26' E 029°02'1 1.2
2018-Feb-24 21:54N 40°27' E 029°02'0 0.8
2018-Feb-24 21:30N 40°27' E 029°02'2 4.1
2018-Feb-24 21:00N 40°26' E 028°60'1 2.5
2018-Feb-24 20:28N 40°25' E 028°59'1 1.6
2018-Feb-24 20:00N 40°25' E 028°60'1 1.5
2018-Feb-24 19:28N 40°26' E 029°01'1 1.4
2018-Feb-24 18:57N 40°27' E 029°01'265 8.3
2018-Feb-23 10:59N 37°49' E 024°26'810.2
2018-Feb-23 10:14N 37°45' E 024°18'1010.0
2018-Feb-23 09:12N 37°37' E 024°09'2 9.9
2018-Feb-23 08:59N 37°36' E 024°07'6 9.5
2018-Feb-23 08:21N 37°33' E 024°00'3 9.1
2018-Feb-23 08:00N 37°33' E 023°56'510.0
2018-Feb-23 07:30N 37°35' E 023°50'510.6
2018-Feb-23 07:00N 37°38' E 023°45'510.5
2018-Feb-23 06:30N 37°42' E 023°41'510.8
2018-Feb-23 06:00N 37°47' E 023°38'510.6
2018-Feb-23 05:30N 37°52' E 023°37'5 9.2
2018-Feb-23 05:01N 37°57' E 023°36'0 0.8
2018-Feb-23 04:29N 37°57' E 023°36'0 0.0
2018-Feb-23 03:59N 37°57' E 023°36'0 0.0
2018-Feb-23 03:29N 37°57' E 023°36'0 0.0
2018-Feb-23 02:59N 37°57' E 023°36'0 0.0
2018-Feb-23 02:29N 37°57' E 023°36'0 0.0
2018-Feb-23 01:59N 37°57' E 023°36'0 0.0
2018-Feb-23 01:29N 37°57' E 023°36'0 0.0
2018-Feb-23 00:59N 37°57' E 023°36'0 0.0
2018-Feb-23 00:29N 37°57' E 023°36'0 0.0
2018-Feb-22 23:59N 37°57' E 023°36'0 0.0
2018-Feb-22 23:29N 37°57' E 023°36'0 0.0
2018-Feb-22 22:59N 37°57' E 023°36'0 0.0
2018-Feb-22 22:29N 37°57' E 023°36'0 0.0
2018-Feb-22 21:59N 37°57' E 023°36'0 0.0
2018-Feb-22 21:29N 37°57' E 023°36'0 0.0
2018-Feb-22 20:59N 37°57' E 023°36'0 0.0
2018-Feb-22 20:29N 37°57' E 023°36'0 0.0
2018-Feb-22 19:59N 37°57' E 023°36'0 0.0
2018-Feb-22 19:29N 37°57' E 023°36'0 0.0
2018-Feb-22 18:59N 37°57' E 023°36'0 0.0
2018-Feb-22 18:29N 37°57' E 023°36'0 0.0
2018-Feb-22 17:59N 37°57' E 023°36'0 0.0
2018-Feb-22 17:29N 37°57' E 023°36'0 0.0
2018-Feb-22 16:59N 37°57' E 023°36'0 0.0
2018-Feb-22 16:29N 37°57' E 023°36'0 0.0
2018-Feb-22 15:59N 37°57' E 023°36'0 0.0
2018-Feb-22 15:29N 37°57' E 023°36'0 0.0
2018-Feb-22 14:59N 37°57' E 023°36'0 0.0
2018-Feb-22 14:29N 37°57' E 023°36'0 0.0
2018-Feb-22 13:59N 37°57' E 023°36'0 0.0
2018-Feb-22 13:29N 37°57' E 023°36'0 0.0
2018-Feb-22 12:59N 37°57' E 023°36'1 1.2
2018-Feb-22 12:30N 37°57' E 023°36'2 4.2
2018-Feb-22 12:00N 37°55' E 023°36'3 5.1
2018-Feb-22 11:30N 37°54' E 023°33'0 0.2
2018-Feb-22 10:58N 37°54' E 023°33'0 0.0
2018-Feb-22 10:28N 37°54' E 023°33'0 0.3
2018-Feb-22 09:58N 37°53' E 023°33'1 2.3
2018-Feb-22 09:31N 37°53' E 023°34'4 7.3
2018-Feb-22 09:00N 37°51' E 023°38'510.7
2018-Feb-22 08:30N 37°47' E 023°42'510.8
2018-Feb-22 08:00N 37°42' E 023°44'510.4
2018-Feb-22 07:30N 37°37' E 023°46'510.9
2018-Feb-22 07:00N 37°31' E 023°46'610.6
2018-Feb-22 06:27N 37°26' E 023°47'1010.8
2018-Feb-22 05:31N 37°16' E 023°45'011.1
2018-Feb-22 05:30N 37°15' E 023°45'44812.8
2018-Feb-20 18:37N 36°23' E 014°29'214.4
2018-Feb-20 18:30N 36°23' E 014°27'714.3
2018-Feb-20 17:59N 36°25' E 014°19'714.3
2018-Feb-20 17:30N 36°28' E 014°11'714.3
2018-Feb-20 17:00N 36°31' E 014°03'813.0
2018-Feb-20 16:24N 36°34' E 013°54'513.4
2018-Feb-20 16:00N 36°35' E 013°47'  
2018-Feb-15 12:40N 35°39' W 006°13'  
Track history (hours):
 
Tides and Currents Weather Stations Pressure Air Temp Water Temp Dewpoint Dewpoint Depression Visibility Wind Speed Wind Dir Waves Ship Positions

Roza A

Last reported at 2018-Feb-25 00:02 UTC. Time now 2018-Feb-25 10:08 UTC.
Position N 40°25' E 029°05'.

Length 168 m; draft 6.6 m.

Type: Ship (hazmat cat A). MMSI: 271001057.

Date/timePositionNaut miles runAvg speedWind from/ knotsBaromVisibWave heightAir tempDewpointWater temp
2018-Feb-25 00:02N 40°25' E 029°05'0 0.4
2018-Feb-24 23:59N 40°25' E 029°05'1 2.8
2018-Feb-24 23:30N 40°25' E 029°03'0 0.9
2018-Feb-24 23:00N 40°26' E 029°03'1 1.6
2018-Feb-24 22:30N 40°26' E 029°02'1 1.2
2018-Feb-24 21:54N 40°27' E 029°02'0 0.8
2018-Feb-24 21:30N 40°27' E 029°02'2 4.1
2018-Feb-24 21:00N 40°26' E 028°60'1 2.5
2018-Feb-24 20:28N 40°25' E 028°59'1 1.6
2018-Feb-24 20:00N 40°25' E 028°60'1 1.5
2018-Feb-24 19:28N 40°26' E 029°01'1 1.4
2018-Feb-24 18:57N 40°27' E 029°01'265 8.3
2018-Feb-23 10:59N 37°49' E 024°26'810.2
2018-Feb-23 10:14N 37°45' E 024°18'1010.0
2018-Feb-23 09:12N 37°37' E 024°09'2 9.9
2018-Feb-23 08:59N 37°36' E 024°07'6 9.5
2018-Feb-23 08:21N 37°33' E 024°00'3 9.1
2018-Feb-23 08:00N 37°33' E 023°56'510.0
2018-Feb-23 07:30N 37°35' E 023°50'510.6
2018-Feb-23 07:00N 37°38' E 023°45'510.5
2018-Feb-23 06:30N 37°42' E 023°41'510.8
2018-Feb-23 06:00N 37°47' E 023°38'510.6
2018-Feb-23 05:30N 37°52' E 023°37'5 9.2
2018-Feb-23 05:01N 37°57' E 023°36'0 0.8
2018-Feb-23 04:29N 37°57' E 023°36'0 0.0
2018-Feb-23 03:59N 37°57' E 023°36'0 0.0
2018-Feb-23 03:29N 37°57' E 023°36'0 0.0
2018-Feb-23 02:59N 37°57' E 023°36'0 0.0
2018-Feb-23 02:29N 37°57' E 023°36'0 0.0
2018-Feb-23 01:59N 37°57' E 023°36'0 0.0
2018-Feb-23 01:29N 37°57' E 023°36'0 0.0
2018-Feb-23 00:59N 37°57' E 023°36'0 0.0
2018-Feb-23 00:29N 37°57' E 023°36'0 0.0
2018-Feb-22 23:59N 37°57' E 023°36'0 0.0
2018-Feb-22 23:29N 37°57' E 023°36'0 0.0
2018-Feb-22 22:59N 37°57' E 023°36'0 0.0
2018-Feb-22 22:29N 37°57' E 023°36'0 0.0
2018-Feb-22 21:59N 37°57' E 023°36'0 0.0
2018-Feb-22 21:29N 37°57' E 023°36'0 0.0
2018-Feb-22 20:59N 37°57' E 023°36'0 0.0
2018-Feb-22 20:29N 37°57' E 023°36'0 0.0
2018-Feb-22 19:59N 37°57' E 023°36'0 0.0
2018-Feb-22 19:29N 37°57' E 023°36'0 0.0
2018-Feb-22 18:59N 37°57' E 023°36'0 0.0
2018-Feb-22 18:29N 37°57' E 023°36'0 0.0
2018-Feb-22 17:59N 37°57' E 023°36'0 0.0
2018-Feb-22 17:29N 37°57' E 023°36'0 0.0
2018-Feb-22 16:59N 37°57' E 023°36'0 0.0
2018-Feb-22 16:29N 37°57' E 023°36'0 0.0
2018-Feb-22 15:59N 37°57' E 023°36'0 0.0
2018-Feb-22 15:29N 37°57' E 023°36'0 0.0
2018-Feb-22 14:59N 37°57' E 023°36'0 0.0
2018-Feb-22 14:29N 37°57' E 023°36'0 0.0
2018-Feb-22 13:59N 37°57' E 023°36'0 0.0
2018-Feb-22 13:29N 37°57' E 023°36'0 0.0
2018-Feb-22 12:59N 37°57' E 023°36'1 1.2
2018-Feb-22 12:30N 37°57' E 023°36'2 4.2
2018-Feb-22 12:00N 37°55' E 023°36'3 5.1
2018-Feb-22 11:30N 37°54' E 023°33'0 0.2
2018-Feb-22 10:58N 37°54' E 023°33'0 0.0
2018-Feb-22 10:28N 37°54' E 023°33'0 0.3
2018-Feb-22 09:58N 37°53' E 023°33'1 2.3
2018-Feb-22 09:31N 37°53' E 023°34'4 7.3
2018-Feb-22 09:00N 37°51' E 023°38'510.7
2018-Feb-22 08:30N 37°47' E 023°42'510.8
2018-Feb-22 08:00N 37°42' E 023°44'510.4
2018-Feb-22 07:30N 37°37' E 023°46'510.9
2018-Feb-22 07:00N 37°31' E 023°46'610.6
2018-Feb-22 06:27N 37°26' E 023°47'1010.8
2018-Feb-22 05:31N 37°16' E 023°45'011.1
2018-Feb-22 05:30N 37°15' E 023°45'44812.8
2018-Feb-20 18:37N 36°23' E 014°29'214.4
2018-Feb-20 18:30N 36°23' E 014°27'714.3
2018-Feb-20 17:59N 36°25' E 014°19'714.3
2018-Feb-20 17:30N 36°28' E 014°11'714.3
2018-Feb-20 17:00N 36°31' E 014°03'813.0
2018-Feb-20 16:24N 36°34' E 013°54'513.4
2018-Feb-20 16:00N 36°35' E 013°47'  
2018-Feb-15 12:40N 35°39' W 006°13'  

Dump ship's entire track history